Delta (North) Heliport

CBD2 · 不列颠哥伦比亚, 加拿大

罗盘
风向 的 风向 250° 直升机
风: 5 kt, 2 beaufort
0 ft 6.000 12.000 18.000 24.000 30.000
Cloud Cloud Cloud Cloud
SCT 5.000
Cloud Cloud Cloud Cloud
SCT 8.000
Cloud Cloud Cloud Cloud Cloud Cloud
BKN 21.000
METAR CYVR 232300Z 25005KT 20SM R08R/3000VP6000FT/D SCT050 SCT080 BKN210 08/07 A3027 RMK SC4AC1CI3 AC TR SLP252

METAR Delta (North) Heliport - CBD2

Delta (North) Heliport是,加拿大中的直升机场。 该机场位于纬度49,11996和经度-123,04727。 该机场的伪ICAO代码为CBD2。 机场在Vancouver FIR中。

该航空气象观测是针对Vancouver International Airport在2024年2月23日 15:00, 当地时间进行的。

机场观察

风向为250°,速度为5 kt。

可见度为20 mi。 跑道08R的能见度为在3.000 ft和多于 6.000 ft之间的变量 和 减少。

有疏云,零星散落的云朵在5.000 ft的高度, 疏云,零星散落的云朵在8.000 ft的高度 和 碎云在21.000 ft的高度。 破损或更高的上限为21.000 ft。

温度为8 °C,阵风为5 °C。 露点为7 °C,相对湿度为93%。 海平面上的气压为30,27 inHg (QNH)。

白天

今天,太阳从07:06升起,在17:44降落。 这适用于Delta (North) Heliport,世界夏令时可能有所不同。 当地时间与世界标准时间之间的时差为-8 小时。 当前,没有夏令时有效。

公司介绍

我们没有关于这个机场的公司信息。

体会

到Vliegles.nl去找飞行课程,跳伞和其他飞行体验。 浏览页面,了解Delta (North) Heliport附近所有可用的活动。 你也可以使用搜索功能来寻找你所在地附近的特定飞行课程、跳伞或其他飞行体验。

警示语

跑道08R处的能见度为在3.000 ft和多于 6.000 ft之间的变量 和 减少。

乌云

5.000 ft SCT 疏云,零星散落的云朵
8.000 ft SCT 疏云,零星散落的云朵
21.000 ft BKN 碎云

温度 & 天气

温度 8 °C
露点 7 °C
相对湿度 93%
风寒 5 °C
Kp-index 1 (0-9)

评论

SLP252海平面压力为30,27 inHg (30,27 inHg)
SC4AC1CI3 AC TR

白天

日出
07:06
中午
12:26
日落
17:45 (1:56)

小工具

你想在你的网站上有一个关于Delta (North) Heliport的当前航空天气(METAR)的小部件吗?

显示HTML代码
?>